sensor_id;sensor_type;location;lat;lon;timestamp;P1;durP1;ratioP1;P2;durP2;ratioP2
6452;SDS011;3259;51.080;13.712;2023-03-23T00:02:43;0.98;;;0.90;;
6452;SDS011;3259;51.080;13.712;2023-03-23T00:05:31;1.27;;;1.05;;
6452;SDS011;3259;51.080;13.712;2023-03-23T00:08:19;0.90;;;0.60;;
6452;SDS011;3259;51.080;13.712;2023-03-23T00:11:08;0.80;;;0.80;;
6452;SDS011;3259;51.080;13.712;2023-03-23T00:13:56;0.60;;;0.60;;
6452;SDS011;3259;51.080;13.712;2023-03-23T00:16:46;0.70;;;0.65;;
6452;SDS011;3259;51.080;13.712;2023-03-23T00:19:34;0.65;;;0.65;;
6452;SDS011;3259;51.080;13.712;2023-03-23T00:22:31;0.60;;;0.60;;
6452;SDS011;3259;51.080;13.712;2023-03-23T00:25:23;0.93;;;0.93;;
6452;SDS011;3259;51.080;13.712;2023-03-23T00:28:12;1.35;;;0.75;;
6452;SDS011;3259;51.080;13.712;2023-03-23T00:31:00;3.95;;;0.77;;
6452;SDS011;3259;51.080;13.712;2023-03-23T00:33:51;0.68;;;0.68;;
6452;SDS011;3259;51.080;13.712;2023-03-23T00:36:39;1.08;;;0.68;;
6452;SDS011;3259;51.080;13.712;2023-03-23T00:39:28;3.25;;;1.05;;
6452;SDS011;3259;51.080;13.712;2023-03-23T00:42:15;1.33;;;0.60;;
6452;SDS011;3259;51.080;13.712;2023-03-23T00:45:05;1.60;;;0.68;;
6452;SDS011;3259;51.080;13.712;2023-03-23T00:47:56;3.45;;;0.60;;
6452;SDS011;3259;51.080;13.712;2023-03-23T00:50:47;6.22;;;0.65;;
6452;SDS011;3259;51.080;13.712;2023-03-23T00:53:35;1.75;;;0.57;;
6452;SDS011;3259;51.080;13.712;2023-03-23T00:56:23;0.63;;;0.63;;
6452;SDS011;3259;51.080;13.712;2023-03-23T00:59:11;0.60;;;0.60;;
6452;SDS011;3259;51.080;13.712;2023-03-23T01:02:01;1.23;;;0.63;;
6452;SDS011;3259;51.080;13.712;2023-03-23T01:04:48;1.48;;;0.75;;
6452;SDS011;3259;51.080;13.712;2023-03-23T01:07:37;1.02;;;0.65;;
6452;SDS011;3259;51.080;13.712;2023-03-23T01:10:25;0.63;;;0.63;;
6452;SDS011;3259;51.080;13.712;2023-03-23T01:13:13;1.00;;;0.57;;
6452;SDS011;3259;51.080;13.712;2023-03-23T01:16:00;1.02;;;0.57;;
6452;SDS011;3259;51.080;13.712;2023-03-23T01:18:50;0.85;;;0.65;;
6452;SDS011;3259;51.080;13.712;2023-03-23T01:21:38;2.10;;;0.57;;
6452;SDS011;3259;51.080;13.712;2023-03-23T01:24:26;2.08;;;0.63;;
6452;SDS011;3259;51.080;13.712;2023-03-23T01:27:13;0.73;;;0.30;;
6452;SDS011;3259;51.080;13.712;2023-03-23T01:30:01;2.05;;;0.40;;
6452;SDS011;3259;51.080;13.712;2023-03-23T01:32:49;0.40;;;0.40;;
6452;SDS011;3259;51.080;13.712;2023-03-23T01:35:38;0.50;;;0.50;;
6452;SDS011;3259;51.080;13.712;2023-03-23T01:38:26;0.90;;;0.38;;
6452;SDS011;3259;51.080;13.712;2023-03-23T01:41:14;0.30;;;0.30;;
6452;SDS011;3259;51.080;13.712;2023-03-23T01:44:03;0.50;;;0.50;;
6452;SDS011;3259;51.080;13.712;2023-03-23T01:46:52;0.20;;;0.20;;
6452;SDS011;3259;51.080;13.712;2023-03-23T01:49:42;2.08;;;0.73;;
6452;SDS011;3259;51.080;13.712;2023-03-23T01:52:32;1.42;;;0.30;;
6452;SDS011;3259;51.080;13.712;2023-03-23T01:55:21;3.92;;;0.60;;
6452;SDS011;3259;51.080;13.712;2023-03-23T01:58:09;0.47;;;0.20;;
6452;SDS011;3259;51.080;13.712;2023-03-23T02:00:58;0.32;;;0.32;;
6452;SDS011;3259;51.080;13.712;2023-03-23T02:03:49;0.20;;;0.20;;
6452;SDS011;3259;51.080;13.712;2023-03-23T02:06:37;0.20;;;0.20;;
6452;SDS011;3259;51.080;13.712;2023-03-23T02:09:26;0.22;;;0.13;;
6452;SDS011;3259;51.080;13.712;2023-03-23T02:12:14;0.52;;;0.32;;
6452;SDS011;3259;51.080;13.712;2023-03-23T02:15:02;0.20;;;0.20;;
6452;SDS011;3259;51.080;13.712;2023-03-23T02:17:51;0.40;;;0.40;;
6452;SDS011;3259;51.080;13.712;2023-03-23T02:20:59;1.05;;;0.40;;
6452;SDS011;3259;51.080;13.712;2023-03-23T02:24:10;0.25;;;0.20;;
6452;SDS011;3259;51.080;13.712;2023-03-23T02:27:10;0.35;;;0.35;;
6452;SDS011;3259;51.080;13.712;2023-03-23T02:30:08;0.10;;;0.10;;
6452;SDS011;3259;51.080;13.712;2023-03-23T02:36:28;0.20;;;0.20;;
6452;SDS011;3259;51.080;13.712;2023-03-23T02:39:19;0.30;;;0.30;;
6452;SDS011;3259;51.080;13.712;2023-03-23T02:42:09;4.68;;;0.50;;
6452;SDS011;3259;51.080;13.712;2023-03-23T02:44:58;0.28;;;0.28;;
6452;SDS011;3259;51.080;13.712;2023-03-23T02:47:46;1.48;;;0.17;;
6452;SDS011;3259;51.080;13.712;2023-03-23T02:50:35;3.35;;;0.22;;
6452;SDS011;3259;51.080;13.712;2023-03-23T02:53:25;0.93;;;0.10;;
6452;SDS011;3259;51.080;13.712;2023-03-23T02:56:13;0.30;;;0.30;;
6452;SDS011;3259;51.080;13.712;2023-03-23T02:59:01;0.93;;;0.28;;
6452;SDS011;3259;51.080;13.712;2023-03-23T03:01:53;0.95;;;0.30;;
6452;SDS011;3259;51.080;13.712;2023-03-23T03:04:46;0.20;;;0.20;;
6452;SDS011;3259;51.080;13.712;2023-03-23T03:07:44;0.30;;;0.30;;
6452;SDS011;3259;51.080;13.712;2023-03-23T03:10:40;0.50;;;0.30;;
6452;SDS011;3259;51.080;13.712;2023-03-23T03:13:32;1.38;;;0.20;;
6452;SDS011;3259;51.080;13.712;2023-03-23T03:16:24;1.65;;;0.32;;
6452;SDS011;3259;51.080;13.712;2023-03-23T03:19:16;1.55;;;0.43;;
6452;SDS011;3259;51.080;13.712;2023-03-23T03:22:06;2.03;;;0.73;;
6452;SDS011;3259;51.080;13.712;2023-03-23T03:24:55;1.23;;;0.20;;
6452;SDS011;3259;51.080;13.712;2023-03-23T03:27:45;1.88;;;0.20;;
6452;SDS011;3259;51.080;13.712;2023-03-23T03:30:37;0.50;;;0.50;;
6452;SDS011;3259;51.080;13.712;2023-03-23T03:33:25;0.40;;;0.40;;
6452;SDS011;3259;51.080;13.712;2023-03-23T03:36:17;0.95;;;0.30;;
6452;SDS011;3259;51.080;13.712;2023-03-23T03:39:07;0.70;;;0.20;;
6452;SDS011;3259;51.080;13.712;2023-03-23T03:41:57;0.25;;;0.20;;
6452;SDS011;3259;51.080;13.712;2023-03-23T03:44:46;1.67;;;0.28;;
6452;SDS011;3259;51.080;13.712;2023-03-23T03:47:34;0.20;;;0.20;;
6452;SDS011;3259;51.080;13.712;2023-03-23T03:50:22;0.85;;;0.60;;
6452;SDS011;3259;51.080;13.712;2023-03-23T03:53:10;0.80;;;0.28;;
6452;SDS011;3259;51.080;13.712;2023-03-23T03:55:58;0.98;;;0.50;;
6452;SDS011;3259;51.080;13.712;2023-03-23T03:58:46;1.83;;;0.30;;
6452;SDS011;3259;51.080;13.712;2023-03-23T04:01:36;0.28;;;0.10;;
6452;SDS011;3259;51.080;13.712;2023-03-23T04:04:24;1.20;;;0.50;;
6452;SDS011;3259;51.080;13.712;2023-03-23T04:07:12;0.22;;;0.22;;
6452;SDS011;3259;51.080;13.712;2023-03-23T04:10:01;0.40;;;0.40;;
6452;SDS011;3259;51.080;13.712;2023-03-23T04:12:51;0.20;;;0.20;;
6452;SDS011;3259;51.080;13.712;2023-03-23T04:15:38;3.60;;;0.20;;
6452;SDS011;3259;51.080;13.712;2023-03-23T04:18:27;0.30;;;0.30;;
6452;SDS011;3259;51.080;13.712;2023-03-23T04:21:17;1.10;;;0.30;;
6452;SDS011;3259;51.080;13.712;2023-03-23T04:24:05;0.30;;;0.30;;
6452;SDS011;3259;51.080;13.712;2023-03-23T04:26:53;0.40;;;0.20;;
6452;SDS011;3259;51.080;13.712;2023-03-23T04:29:41;2.03;;;0.43;;
6452;SDS011;3259;51.080;13.712;2023-03-23T04:32:35;0.45;;;0.20;;
6452;SDS011;3259;51.080;13.712;2023-03-23T04:35:28;0.85;;;0.30;;
6452;SDS011;3259;51.080;13.712;2023-03-23T04:38:16;0.28;;;0.28;;
6452;SDS011;3259;51.080;13.712;2023-03-23T04:41:05;0.28;;;0.28;;
6452;SDS011;3259;51.080;13.712;2023-03-23T04:43:53;0.55;;;0.17;;
6452;SDS011;3259;51.080;13.712;2023-03-23T04:46:42;0.65;;;0.20;;
6452;SDS011;3259;51.080;13.712;2023-03-23T04:49:30;0.85;;;0.40;;
6452;SDS011;3259;51.080;13.712;2023-03-23T04:52:19;1.58;;;0.30;;
6452;SDS011;3259;51.080;13.712;2023-03-23T04:55:07;0.30;;;0.30;;
6452;SDS011;3259;51.080;13.712;2023-03-23T04:57:55;1.42;;;0.55;;
6452;SDS011;3259;51.080;13.712;2023-03-23T05:00:45;1.45;;;0.50;;
6452;SDS011;3259;51.080;13.712;2023-03-23T05:03:35;0.77;;;0.30;;
6452;SDS011;3259;51.080;13.712;2023-03-23T05:06:22;0.60;;;0.30;;
6452;SDS011;3259;51.080;13.712;2023-03-23T05:09:11;0.40;;;0.40;;
6452;SDS011;3259;51.080;13.712;2023-03-23T05:12:02;0.38;;;0.35;;
6452;SDS011;3259;51.080;13.712;2023-03-23T05:14:51;0.77;;;0.32;;
6452;SDS011;3259;51.080;13.712;2023-03-23T05:17:38;0.80;;;0.50;;
6452;SDS011;3259;51.080;13.712;2023-03-23T05:20:29;0.50;;;0.32;;
6452;SDS011;3259;51.080;13.712;2023-03-23T05:23:17;0.75;;;0.40;;
6452;SDS011;3259;51.080;13.712;2023-03-23T05:26:07;1.05;;;0.40;;
6452;SDS011;3259;51.080;13.712;2023-03-23T05:28:55;0.57;;;0.40;;
6452;SDS011;3259;51.080;13.712;2023-03-23T05:31:42;2.30;;;0.60;;
6452;SDS011;3259;51.080;13.712;2023-03-23T05:34:30;0.68;;;0.57;;
6452;SDS011;3259;51.080;13.712;2023-03-23T05:37:19;0.35;;;0.35;;
6452;SDS011;3259;51.080;13.712;2023-03-23T05:40:07;1.38;;;0.30;;
6452;SDS011;3259;51.080;13.712;2023-03-23T05:42:56;0.22;;;0.17;;
6452;SDS011;3259;51.080;13.712;2023-03-23T05:45:44;2.05;;;0.60;;
6452;SDS011;3259;51.080;13.712;2023-03-23T05:48:32;1.25;;;0.35;;
6452;SDS011;3259;51.080;13.712;2023-03-23T05:51:19;3.25;;;0.25;;
6452;SDS011;3259;51.080;13.712;2023-03-23T05:54:07;0.77;;;0.77;;
6452;SDS011;3259;51.080;13.712;2023-03-23T05:56:56;0.32;;;0.30;;
6452;SDS011;3259;51.080;13.712;2023-03-23T05:59:45;0.90;;;0.63;;
6452;SDS011;3259;51.080;13.712;2023-03-23T06:02:33;2.22;;;0.60;;
6452;SDS011;3259;51.080;13.712;2023-03-23T06:05:21;2.15;;;0.40;;
6452;SDS011;3259;51.080;13.712;2023-03-23T06:08:11;0.65;;;0.60;;
6452;SDS011;3259;51.080;13.712;2023-03-23T06:10:59;10.45;;;1.90;;
6452;SDS011;3259;51.080;13.712;2023-03-23T06:13:47;10.40;;;2.88;;
6452;SDS011;3259;51.080;13.712;2023-03-23T06:16:36;9.63;;;2.17;;
6452;SDS011;3259;51.080;13.712;2023-03-23T06:19:23;4.28;;;1.40;;
6452;SDS011;3259;51.080;13.712;2023-03-23T06:22:12;1.52;;;1.23;;
6452;SDS011;3259;51.080;13.712;2023-03-23T06:25:00;4.40;;;1.30;;
6452;SDS011;3259;51.080;13.712;2023-03-23T06:27:47;2.47;;;1.45;;
6452;SDS011;3259;51.080;13.712;2023-03-23T06:30:37;7.03;;;1.33;;
6452;SDS011;3259;51.080;13.712;2023-03-23T06:33:27;7.78;;;1.10;;
6452;SDS011;3259;51.080;13.712;2023-03-23T06:36:14;3.28;;;0.95;;
6452;SDS011;3259;51.080;13.712;2023-03-23T06:39:02;1.48;;;0.95;;
6452;SDS011;3259;51.080;13.712;2023-03-23T06:41:51;3.90;;;1.00;;
6452;SDS011;3259;51.080;13.712;2023-03-23T06:44:38;1.98;;;0.85;;
6452;SDS011;3259;51.080;13.712;2023-03-23T06:47:26;2.58;;;0.98;;
6452;SDS011;3259;51.080;13.712;2023-03-23T06:50:16;3.20;;;0.63;;
6452;SDS011;3259;51.080;13.712;2023-03-23T06:53:04;2.35;;;0.60;;
6452;SDS011;3259;51.080;13.712;2023-03-23T06:55:51;2.75;;;0.68;;
6452;SDS011;3259;51.080;13.712;2023-03-23T06:58:39;3.72;;;1.05;;
6452;SDS011;3259;51.080;13.712;2023-03-23T07:01:27;3.28;;;0.85;;
6452;SDS011;3259;51.080;13.712;2023-03-23T07:04:15;2.22;;;0.55;;
6452;SDS011;3259;51.080;13.712;2023-03-23T07:07:04;0.88;;;0.60;;
6452;SDS011;3259;51.080;13.712;2023-03-23T07:09:52;1.17;;;0.68;;
6452;SDS011;3259;51.080;13.712;2023-03-23T07:12:40;1.70;;;0.50;;
6452;SDS011;3259;51.080;13.712;2023-03-23T07:15:28;1.60;;;0.60;;
6452;SDS011;3259;51.080;13.712;2023-03-23T07:18:16;8.40;;;0.52;;
6452;SDS011;3259;51.080;13.712;2023-03-23T07:21:05;0.98;;;0.75;;
6452;SDS011;3259;51.080;13.712;2023-03-23T07:23:54;1.70;;;0.60;;
6452;SDS011;3259;51.080;13.712;2023-03-23T07:26:42;2.58;;;0.70;;
6452;SDS011;3259;51.080;13.712;2023-03-23T07:29:30;0.82;;;0.50;;
6452;SDS011;3259;51.080;13.712;2023-03-23T07:32:20;3.28;;;0.90;;
6452;SDS011;3259;51.080;13.712;2023-03-23T07:35:08;1.17;;;0.77;;
6452;SDS011;3259;51.080;13.712;2023-03-23T07:37:56;30.73;;;5.07;;
6452;SDS011;3259;51.080;13.712;2023-03-23T07:40:46;43.08;;;8.68;;
6452;SDS011;3259;51.080;13.712;2023-03-23T07:43:34;20.95;;;6.18;;
6452;SDS011;3259;51.080;13.712;2023-03-23T07:46:22;12.07;;;3.63;;
6452;SDS011;3259;51.080;13.712;2023-03-23T07:49:09;18.30;;;3.92;;
6452;SDS011;3259;51.080;13.712;2023-03-23T07:51:57;10.10;;;2.72;;
6452;SDS011;3259;51.080;13.712;2023-03-23T07:54:46;12.63;;;2.67;;
6452;SDS011;3259;51.080;13.712;2023-03-23T07:57:35;6.97;;;2.10;;
6452;SDS011;3259;51.080;13.712;2023-03-23T08:00:24;3.58;;;1.58;;
6452;SDS011;3259;51.080;13.712;2023-03-23T08:03:12;5.15;;;2.55;;
6452;SDS011;3259;51.080;13.712;2023-03-23T08:06:00;4.47;;;1.58;;
6452;SDS011;3259;51.080;13.712;2023-03-23T08:08:47;2.72;;;1.40;;
6452;SDS011;3259;51.080;13.712;2023-03-23T08:11:35;3.42;;;1.67;;
6452;SDS011;3259;51.080;13.712;2023-03-23T08:14:27;7.45;;;1.83;;
6452;SDS011;3259;51.080;13.712;2023-03-23T08:17:16;5.15;;;1.38;;
6452;SDS011;3259;51.080;13.712;2023-03-23T08:20:04;5.78;;;1.90;;
6452;SDS011;3259;51.080;13.712;2023-03-23T08:22:57;3.45;;;1.38;;
6452;SDS011;3259;51.080;13.712;2023-03-23T08:25:45;1.40;;;1.30;;
6452;SDS011;3259;51.080;13.712;2023-03-23T08:28:34;3.47;;;1.02;;
6452;SDS011;3259;51.080;13.712;2023-03-23T08:31:25;2.47;;;1.10;;
6452;SDS011;3259;51.080;13.712;2023-03-23T08:34:12;2.97;;;1.10;;
6452;SDS011;3259;51.080;13.712;2023-03-23T08:37:01;3.45;;;1.35;;
6452;SDS011;3259;51.080;13.712;2023-03-23T08:39:50;11.93;;;1.77;;
6452;SDS011;3259;51.080;13.712;2023-03-23T08:42:38;2.30;;;1.10;;
6452;SDS011;3259;51.080;13.712;2023-03-23T08:45:29;2.88;;;1.00;;
6452;SDS011;3259;51.080;13.712;2023-03-23T08:48:18;3.60;;;0.82;;
6452;SDS011;3259;51.080;13.712;2023-03-23T08:51:05;1.98;;;0.90;;
6452;SDS011;3259;51.080;13.712;2023-03-23T08:53:54;2.50;;;0.68;;
6452;SDS011;3259;51.080;13.712;2023-03-23T08:56:41;1.58;;;0.90;;
6452;SDS011;3259;51.080;13.712;2023-03-23T08:59:29;0.73;;;0.60;;
6452;SDS011;3259;51.080;13.712;2023-03-23T09:02:16;0.77;;;0.75;;
6452;SDS011;3259;51.080;13.712;2023-03-23T09:05:06;0.68;;;0.68;;
6452;SDS011;3259;51.080;13.712;2023-03-23T09:07:55;0.82;;;0.45;;
6452;SDS011;3259;51.080;13.712;2023-03-23T09:10:44;2.30;;;0.57;;
6452;SDS011;3259;51.080;13.712;2023-03-23T09:13:32;0.90;;;0.63;;
6452;SDS011;3259;51.080;13.712;2023-03-23T09:16:19;1.65;;;0.50;;
6452;SDS011;3259;51.080;13.712;2023-03-23T09:19:07;2.53;;;0.90;;
6452;SDS011;3259;51.080;13.712;2023-03-23T09:21:56;1.17;;;0.50;;
6452;SDS011;3259;51.080;13.712;2023-03-23T09:24:44;0.47;;;0.47;;
6452;SDS011;3259;51.080;13.712;2023-03-23T09:27:32;2.42;;;0.47;;
6452;SDS011;3259;51.080;13.712;2023-03-23T09:30:22;0.93;;;0.52;;
6452;SDS011;3259;51.080;13.712;2023-03-23T09:33:11;0.40;;;0.28;;
6452;SDS011;3259;51.080;13.712;2023-03-23T09:35:59;1.30;;;0.40;;
6452;SDS011;3259;51.080;13.712;2023-03-23T09:38:51;0.63;;;0.40;;
6452;SDS011;3259;51.080;13.712;2023-03-23T09:41:44;1.30;;;0.40;;
6452;SDS011;3259;51.080;13.712;2023-03-23T09:44:44;0.63;;;0.50;;
6452;SDS011;3259;51.080;13.712;2023-03-23T09:47:38;0.45;;;0.45;;
6452;SDS011;3259;51.080;13.712;2023-03-23T09:50:31;0.55;;;0.40;;
6452;SDS011;3259;51.080;13.712;2023-03-23T09:53:21;0.55;;;0.55;;
6452;SDS011;3259;51.080;13.712;2023-03-23T09:56:11;1.02;;;0.50;;
6452;SDS011;3259;51.080;13.712;2023-03-23T09:59:01;0.60;;;0.50;;
6452;SDS011;3259;51.080;13.712;2023-03-23T10:01:53;1.42;;;0.28;;
6452;SDS011;3259;51.080;13.712;2023-03-23T10:04:44;0.55;;;0.30;;
6452;SDS011;3259;51.080;13.712;2023-03-23T10:07:32;0.88;;;0.40;;
6452;SDS011;3259;51.080;13.712;2023-03-23T10:10:20;1.00;;;0.57;;
6452;SDS011;3259;51.080;13.712;2023-03-23T10:13:12;0.40;;;0.40;;
6452;SDS011;3259;51.080;13.712;2023-03-23T10:16:04;2.53;;;0.60;;
6452;SDS011;3259;51.080;13.712;2023-03-23T10:18:56;1.65;;;0.73;;
6452;SDS011;3259;51.080;13.712;2023-03-23T10:21:47;0.75;;;0.40;;
6452;SDS011;3259;51.080;13.712;2023-03-23T10:24:46;0.68;;;0.32;;
6452;SDS011;3259;51.080;13.712;2023-03-23T10:27:38;0.40;;;0.40;;
6452;SDS011;3259;51.080;13.712;2023-03-23T10:30:35;0.55;;;0.30;;
6452;SDS011;3259;51.080;13.712;2023-03-23T10:33:25;0.57;;;0.45;;
6452;SDS011;3259;51.080;13.712;2023-03-23T10:36:18;0.52;;;0.20;;
6452;SDS011;3259;51.080;13.712;2023-03-23T10:39:10;2.05;;;0.43;;
6452;SDS011;3259;51.080;13.712;2023-03-23T10:42:00;0.28;;;0.28;;
6452;SDS011;3259;51.080;13.712;2023-03-23T10:44:52;1.00;;;0.38;;
6452;SDS011;3259;51.080;13.712;2023-03-23T10:47:44;0.40;;;0.40;;
6452;SDS011;3259;51.080;13.712;2023-03-23T10:50:34;0.80;;;0.47;;
6452;SDS011;3259;51.080;13.712;2023-03-23T10:53:23;0.70;;;0.47;;
6452;SDS011;3259;51.080;13.712;2023-03-23T10:56:22;0.70;;;0.60;;
6452;SDS011;3259;51.080;13.712;2023-03-23T10:59:11;0.30;;;0.30;;
6452;SDS011;3259;51.080;13.712;2023-03-23T11:02:01;2.13;;;0.45;;
6452;SDS011;3259;51.080;13.712;2023-03-23T11:04:59;0.57;;;0.38;;
6452;SDS011;3259;51.080;13.712;2023-03-23T11:07:51;0.40;;;0.28;;
6452;SDS011;3259;51.080;13.712;2023-03-23T11:10:47;0.50;;;0.50;;
6452;SDS011;3259;51.080;13.712;2023-03-23T11:13:39;0.98;;;0.40;;
6452;SDS011;3259;51.080;13.712;2023-03-23T11:16:30;0.28;;;0.28;;
6452;SDS011;3259;51.080;13.712;2023-03-23T11:19:23;0.38;;;0.30;;
6452;SDS011;3259;51.080;13.712;2023-03-23T11:22:15;0.32;;;0.25;;
6452;SDS011;3259;51.080;13.712;2023-03-23T11:25:04;0.30;;;0.30;;
6452;SDS011;3259;51.080;13.712;2023-03-23T11:27:53;1.25;;;0.30;;
6452;SDS011;3259;51.080;13.712;2023-03-23T11:30:41;1.55;;;0.28;;
6452;SDS011;3259;51.080;13.712;2023-03-23T11:33:29;0.45;;;0.45;;
6452;SDS011;3259;51.080;13.712;2023-03-23T11:36:19;0.32;;;0.30;;
6452;SDS011;3259;51.080;13.712;2023-03-23T11:39:23;0.47;;;0.47;;
6452;SDS011;3259;51.080;13.712;2023-03-23T11:42:12;1.75;;;0.22;;
6452;SDS011;3259;51.080;13.712;2023-03-23T11:45:15;0.20;;;0.20;;
6452;SDS011;3259;51.080;13.712;2023-03-23T11:48:09;1.88;;;0.20;;
6452;SDS011;3259;51.080;13.712;2023-03-23T11:51:01;0.40;;;0.40;;
6452;SDS011;3259;51.080;13.712;2023-03-23T11:53:54;1.52;;;0.40;;
6452;SDS011;3259;51.080;13.712;2023-03-23T11:56:45;0.73;;;0.40;;
6452;SDS011;3259;51.080;13.712;2023-03-23T11:59:33;0.52;;;0.20;;
6452;SDS011;3259;51.080;13.712;2023-03-23T12:02:28;0.30;;;0.30;;
6452;SDS011;3259;51.080;13.712;2023-03-23T12:05:28;1.17;;;0.35;;
6452;SDS011;3259;51.080;13.712;2023-03-23T12:08:23;0.25;;;0.25;;
6452;SDS011;3259;51.080;13.712;2023-03-23T12:11:19;0.30;;;0.30;;
6452;SDS011;3259;51.080;13.712;2023-03-23T12:14:16;0.50;;;0.30;;
6452;SDS011;3259;51.080;13.712;2023-03-23T12:17:11;0.88;;;0.25;;
6452;SDS011;3259;51.080;13.712;2023-03-23T12:20:14;0.68;;;0.30;;
6452;SDS011;3259;51.080;13.712;2023-03-23T12:23:14;1.45;;;0.30;;
6452;SDS011;3259;51.080;13.712;2023-03-23T12:26:15;0.40;;;0.40;;
6452;SDS011;3259;51.080;13.712;2023-03-23T12:29:10;1.10;;;0.60;;
6452;SDS011;3259;51.080;13.712;2023-03-23T12:35:25;0.10;;;0.10;;
6452;SDS011;3259;51.080;13.712;2023-03-23T12:38:22;1.08;;;0.30;;
6452;SDS011;3259;51.080;13.712;2023-03-23T12:41:34;0.20;;;0.20;;
6452;SDS011;3259;51.080;13.712;2023-03-23T12:44:27;0.43;;;0.30;;
6452;SDS011;3259;51.080;13.712;2023-03-23T12:47:35;0.20;;;0.20;;
6452;SDS011;3259;51.080;13.712;2023-03-23T12:50:29;0.65;;;0.35;;
6452;SDS011;3259;51.080;13.712;2023-03-23T12:53:20;0.30;;;0.20;;
6452;SDS011;3259;51.080;13.712;2023-03-23T12:56:12;0.52;;;0.30;;
6452;SDS011;3259;51.080;13.712;2023-03-23T12:59:06;0.52;;;0.20;;
6452;SDS011;3259;51.080;13.712;2023-03-23T13:02:00;1.08;;;0.30;;
6452;SDS011;3259;51.080;13.712;2023-03-23T13:04:56;0.30;;;0.25;;
6452;SDS011;3259;51.080;13.712;2023-03-23T13:07:48;0.25;;;0.25;;
6452;SDS011;3259;51.080;13.712;2023-03-23T13:10:40;0.35;;;0.20;;
6452;SDS011;3259;51.080;13.712;2023-03-23T13:13:40;0.80;;;0.30;;
6452;SDS011;3259;51.080;13.712;2023-03-23T13:16:32;2.13;;;0.30;;
6452;SDS011;3259;51.080;13.712;2023-03-23T13:19:27;0.32;;;0.32;;
6452;SDS011;3259;51.080;13.712;2023-03-23T13:22:21;0.20;;;0.10;;
6452;SDS011;3259;51.080;13.712;2023-03-23T13:25:13;0.30;;;0.30;;
6452;SDS011;3259;51.080;13.712;2023-03-23T13:28:05;0.47;;;0.30;;
6452;SDS011;3259;51.080;13.712;2023-03-23T13:31:02;0.22;;;0.20;;
6452;SDS011;3259;51.080;13.712;2023-03-23T13:33:51;0.38;;;0.30;;
6452;SDS011;3259;51.080;13.712;2023-03-23T13:36:40;0.25;;;0.20;;
6452;SDS011;3259;51.080;13.712;2023-03-23T13:39:31;0.90;;;0.20;;
6452;SDS011;3259;51.080;13.712;2023-03-23T13:42:22;1.10;;;0.40;;
6452;SDS011;3259;51.080;13.712;2023-03-23T13:45:18;0.40;;;0.30;;
6452;SDS011;3259;51.080;13.712;2023-03-23T13:48:17;1.70;;;0.20;;
6452;SDS011;3259;51.080;13.712;2023-03-23T13:51:23;0.13;;;0.10;;
6452;SDS011;3259;51.080;13.712;2023-03-23T13:54:19;0.98;;;0.30;;
6452;SDS011;3259;51.080;13.712;2023-03-23T13:57:33;0.22;;;0.22;;
6452;SDS011;3259;51.080;13.712;2023-03-23T14:03:33;1.55;;;0.50;;
6452;SDS011;3259;51.080;13.712;2023-03-23T14:06:23;1.40;;;0.20;;
6452;SDS011;3259;51.080;13.712;2023-03-23T14:09:13;0.45;;;0.30;;
6452;SDS011;3259;51.080;13.712;2023-03-23T14:12:04;0.22;;;0.20;;
6452;SDS011;3259;51.080;13.712;2023-03-23T14:14:58;0.30;;;0.30;;
6452;SDS011;3259;51.080;13.712;2023-03-23T14:17:49;0.28;;;0.28;;
6452;SDS011;3259;51.080;13.712;2023-03-23T14:20:37;0.28;;;0.28;;
6452;SDS011;3259;51.080;13.712;2023-03-23T14:23:25;0.50;;;0.38;;
6452;SDS011;3259;51.080;13.712;2023-03-23T14:26:15;0.40;;;0.25;;
6452;SDS011;3259;51.080;13.712;2023-03-23T14:29:04;0.38;;;0.38;;
6452;SDS011;3259;51.080;13.712;2023-03-23T14:31:55;0.17;;;0.10;;
6452;SDS011;3259;51.080;13.712;2023-03-23T14:34:44;1.35;;;0.30;;
6452;SDS011;3259;51.080;13.712;2023-03-23T14:37:34;1.50;;;0.22;;
6452;SDS011;3259;51.080;13.712;2023-03-23T14:40:22;0.20;;;0.20;;
6452;SDS011;3259;51.080;13.712;2023-03-23T14:43:10;0.30;;;0.30;;
6452;SDS011;3259;51.080;13.712;2023-03-23T14:45:58;0.13;;;0.13;;
6452;SDS011;3259;51.080;13.712;2023-03-23T14:48:49;0.22;;;0.20;;
6452;SDS011;3259;51.080;13.712;2023-03-23T14:51:36;0.30;;;0.28;;
6452;SDS011;3259;51.080;13.712;2023-03-23T14:54:25;0.20;;;0.20;;
6452;SDS011;3259;51.080;13.712;2023-03-23T14:57:14;1.00;;;0.40;;
6452;SDS011;3259;51.080;13.712;2023-03-23T15:00:03;0.17;;;0.17;;
6452;SDS011;3259;51.080;13.712;2023-03-23T15:02:55;0.52;;;0.35;;
6452;SDS011;3259;51.080;13.712;2023-03-23T15:05:48;0.20;;;0.20;;
6452;SDS011;3259;51.080;13.712;2023-03-23T15:08:39;0.47;;;0.40;;
6452;SDS011;3259;51.080;13.712;2023-03-23T15:11:27;0.40;;;0.10;;
6452;SDS011;3259;51.080;13.712;2023-03-23T15:14:16;0.20;;;0.20;;
6452;SDS011;3259;51.080;13.712;2023-03-23T15:17:09;0.68;;;0.20;;
6452;SDS011;3259;51.080;13.712;2023-03-23T15:20:08;0.35;;;0.35;;
6452;SDS011;3259;51.080;13.712;2023-03-23T15:23:04;0.68;;;0.22;;
6452;SDS011;3259;51.080;13.712;2023-03-23T15:25:53;0.38;;;0.20;;
6452;SDS011;3259;51.080;13.712;2023-03-23T15:28:42;0.45;;;0.20;;
6452;SDS011;3259;51.080;13.712;2023-03-23T15:31:31;0.20;;;0.20;;
6452;SDS011;3259;51.080;13.712;2023-03-23T15:34:20;3.25;;;0.80;;
6452;SDS011;3259;51.080;13.712;2023-03-23T15:37:17;2.75;;;0.77;;
6452;SDS011;3259;51.080;13.712;2023-03-23T15:40:15;1.38;;;0.47;;
6452;SDS011;3259;51.080;13.712;2023-03-23T15:43:07;1.30;;;0.50;;
6452;SDS011;3259;51.080;13.712;2023-03-23T15:46:03;1.30;;;0.55;;
6452;SDS011;3259;51.080;13.712;2023-03-23T15:48:52;0.43;;;0.40;;
6452;SDS011;3259;51.080;13.712;2023-03-23T15:51:41;0.98;;;0.60;;
6452;SDS011;3259;51.080;13.712;2023-03-23T15:54:30;0.52;;;0.40;;
6452;SDS011;3259;51.080;13.712;2023-03-23T15:57:20;1.90;;;0.60;;
6452;SDS011;3259;51.080;13.712;2023-03-23T16:00:08;0.80;;;0.57;;
6452;SDS011;3259;51.080;13.712;2023-03-23T16:03:00;1.48;;;0.52;;
6452;SDS011;3259;51.080;13.712;2023-03-23T16:05:49;0.57;;;0.40;;
6452;SDS011;3259;51.080;13.712;2023-03-23T16:08:38;0.45;;;0.38;;
6452;SDS011;3259;51.080;13.712;2023-03-23T16:11:40;1.52;;;0.60;;
6452;SDS011;3259;51.080;13.712;2023-03-23T16:14:30;0.70;;;0.52;;
6452;SDS011;3259;51.080;13.712;2023-03-23T16:17:19;0.40;;;0.22;;
6452;SDS011;3259;51.080;13.712;2023-03-23T16:20:09;0.73;;;0.30;;
6452;SDS011;3259;51.080;13.712;2023-03-23T16:22:59;0.35;;;0.35;;
6452;SDS011;3259;51.080;13.712;2023-03-23T16:25:49;0.50;;;0.50;;
6452;SDS011;3259;51.080;13.712;2023-03-23T16:28:38;0.30;;;0.30;;
6452;SDS011;3259;51.080;13.712;2023-03-23T16:31:28;2.53;;;0.40;;
6452;SDS011;3259;51.080;13.712;2023-03-23T16:34:17;0.20;;;0.20;;
6452;SDS011;3259;51.080;13.712;2023-03-23T16:37:05;2.03;;;0.20;;
6452;SDS011;3259;51.080;13.712;2023-03-23T16:39:54;9.50;;;0.43;;
6452;SDS011;3259;51.080;13.712;2023-03-23T16:42:44;0.68;;;0.30;;
6452;SDS011;3259;51.080;13.712;2023-03-23T16:45:33;0.63;;;0.32;;
6452;SDS011;3259;51.080;13.712;2023-03-23T16:48:25;1.02;;;0.20;;
6452;SDS011;3259;51.080;13.712;2023-03-23T16:51:14;1.35;;;0.40;;
6452;SDS011;3259;51.080;13.712;2023-03-23T16:54:02;0.30;;;0.30;;
6452;SDS011;3259;51.080;13.712;2023-03-23T16:56:51;0.98;;;0.38;;
6452;SDS011;3259;51.080;13.712;2023-03-23T16:59:40;0.73;;;0.22;;
6452;SDS011;3259;51.080;13.712;2023-03-23T17:02:29;0.65;;;0.43;;
6452;SDS011;3259;51.080;13.712;2023-03-23T17:05:20;1.20;;;0.63;;
6452;SDS011;3259;51.080;13.712;2023-03-23T17:08:09;0.60;;;0.30;;
6452;SDS011;3259;51.080;13.712;2023-03-23T17:10:58;0.90;;;0.20;;
6452;SDS011;3259;51.080;13.712;2023-03-23T17:13:47;0.85;;;0.43;;
6452;SDS011;3259;51.080;13.712;2023-03-23T17:16:35;0.20;;;0.20;;
6452;SDS011;3259;51.080;13.712;2023-03-23T17:19:25;0.38;;;0.22;;
6452;SDS011;3259;51.080;13.712;2023-03-23T17:22:15;4.22;;;0.30;;
6452;SDS011;3259;51.080;13.712;2023-03-23T17:25:05;0.65;;;0.40;;
6452;SDS011;3259;51.080;13.712;2023-03-23T17:28:02;1.98;;;0.30;;
6452;SDS011;3259;51.080;13.712;2023-03-23T17:30:52;0.60;;;0.30;;
6452;SDS011;3259;51.080;13.712;2023-03-23T17:33:41;0.55;;;0.20;;